createdAt,value
2019-04-03T00:00:32.816Z,39.80
2019-04-03T00:03:04.744Z,39.50
2019-04-03T00:05:35.459Z,39.70
2019-04-03T00:08:06.571Z,39.80
2019-04-03T00:10:38.095Z,39.70
2019-04-03T00:13:10.439Z,39.80
2019-04-03T00:15:38.979Z,39.80
2019-04-03T00:18:09.452Z,40.00
2019-04-03T00:20:38.962Z,40.10
2019-04-03T00:23:08.545Z,40.90
2019-04-03T00:25:38.077Z,40.20
2019-04-03T00:28:08.653Z,40.60
2019-04-03T00:30:38.183Z,40.30
2019-04-03T00:33:07.662Z,40.30
2019-04-03T00:35:37.186Z,40.30
2019-04-03T00:38:06.827Z,40.30
2019-04-03T00:40:36.574Z,40.50
2019-04-03T00:43:06.057Z,40.40
2019-04-03T00:45:35.586Z,40.60
2019-04-03T00:48:05.292Z,40.70
2019-04-03T00:50:34.779Z,40.70
2019-04-03T00:53:04.361Z,40.90
2019-04-03T00:55:33.891Z,41.00
2019-04-03T00:58:06.450Z,41.00
2019-04-03T01:00:36.005Z,40.90
2019-04-03T01:03:05.694Z,41.20
2019-04-03T01:05:35.181Z,41.30
2019-04-03T01:08:04.717Z,41.50
2019-04-03T01:10:34.197Z,41.80
2019-04-03T01:13:03.745Z,41.80
2019-04-03T01:15:33.346Z,41.60
2019-04-03T01:18:04.289Z,41.50
2019-04-03T01:20:34.605Z,41.80
2019-04-03T01:23:05.527Z,41.80
2019-04-03T01:25:36.237Z,41.80
2019-04-03T01:28:06.744Z,41.80
2019-04-03T01:30:36.269Z,42.10
2019-04-03T01:33:05.793Z,41.90
2019-04-03T01:35:36.245Z,42.20
2019-04-03T01:38:05.769Z,42.40
2019-04-03T01:40:35.261Z,42.60
2019-04-03T01:43:04.861Z,42.70
2019-04-03T01:45:34.338Z,42.60
2019-04-03T01:48:03.863Z,42.60
2019-04-03T01:50:33.422Z,42.60
2019-04-03T01:53:02.949Z,42.50
2019-04-03T01:55:34.084Z,42.80
2019-04-03T01:58:06.309Z,42.90
2019-04-03T02:00:37.239Z,42.60
2019-04-03T02:03:06.074Z,43.00
2019-04-03T02:05:35.565Z,42.90
2019-04-03T02:08:05.091Z,43.20
2019-04-03T02:10:34.577Z,43.30
2019-04-03T02:13:04.184Z,43.50
2019-04-03T02:15:33.670Z,43.70
2019-04-03T02:18:03.193Z,43.70
2019-04-03T02:20:32.698Z,44.00
2019-04-03T02:23:02.229Z,44.00
2019-04-03T02:25:32.265Z,43.90
2019-04-03T02:28:04.053Z,44.20
2019-04-03T02:30:33.153Z,44.20
2019-04-03T02:33:03.653Z,44.30
2019-04-03T02:35:33.670Z,44.40
2019-04-03T02:38:03.572Z,44.70
2019-04-03T02:40:33.309Z,45.00
2019-04-03T02:43:02.907Z,45.40
2019-04-03T02:45:33.452Z,45.40
2019-04-03T02:48:05.524Z,45.30
2019-04-03T02:50:34.475Z,45.50
2019-04-03T02:53:06.813Z,45.80
2019-04-03T02:55:39.339Z,45.90
2019-04-03T02:58:07.510Z,45.90
2019-04-03T03:00:36.990Z,46.30
2019-04-03T03:03:06.518Z,46.40
2019-04-03T03:05:36.078Z,46.00
2019-04-03T03:08:08.023Z,46.20
2019-04-03T03:10:37.454Z,46.30
2019-04-03T03:13:07.220Z,47.00
2019-04-03T03:15:38.066Z,47.20
2019-04-03T03:18:07.662Z,47.20
2019-04-03T03:20:39.867Z,47.30
2019-04-03T03:23:09.497Z,47.50
2019-04-03T03:25:39.288Z,47.60
2019-04-03T03:28:13.108Z,47.90
2019-04-03T03:30:53.421Z,47.60
2019-04-03T03:33:32.055Z,48.00
2019-04-03T03:35:48.915Z,48.30
2019-04-03T03:38:18.254Z,48.20
2019-04-03T03:40:49.402Z,48.50
2019-04-03T03:43:19.363Z,48.80
2019-04-03T03:45:52.528Z,48.80
2019-04-03T03:48:21.098Z,49.30
2019-04-03T03:50:51.194Z,49.60
2019-04-03T03:53:21.196Z,49.70
2019-04-03T03:55:50.976Z,50.00
2019-04-03T03:58:21.165Z,50.20
2019-04-03T04:00:52.173Z,50.50
2019-04-03T04:03:21.879Z,50.60
2019-04-03T04:05:54.680Z,51.00
2019-04-03T04:08:22.649Z,51.20
2019-04-03T04:10:52.634Z,51.40
2019-04-03T04:13:22.334Z,51.60
2019-04-03T04:15:51.900Z,52.10
2019-04-03T04:18:23.741Z,52.30
2019-04-03T04:20:53.367Z,52.70
2019-04-03T04:23:25.217Z,52.90
2019-04-03T04:25:55.718Z,52.90
2019-04-03T04:28:25.318Z,53.00
2019-04-03T04:30:55.143Z,53.20
2019-04-03T04:33:24.624Z,53.20
2019-04-03T04:35:54.158Z,53.40
2019-04-03T04:38:24.803Z,53.70
2019-04-03T04:40:54.812Z,54.00
2019-04-03T04:43:25.410Z,54.10
2019-04-03T04:45:55.183Z,54.20
2019-04-03T04:48:25.330Z,54.00
2019-04-03T04:50:55.499Z,53.90
2019-04-03T04:53:25.301Z,53.90
2019-04-03T04:55:54.814Z,53.80
2019-04-03T04:58:24.483Z,53.20
2019-04-03T05:00:54.082Z,52.70
2019-04-03T05:03:23.578Z,51.80
2019-04-03T05:05:53.113Z,51.00
2019-04-03T05:08:22.609Z,49.60
2019-04-03T05:10:52.239Z,49.50
2019-04-03T05:13:21.726Z,48.60
2019-04-03T05:15:51.822Z,48.80
2019-04-03T05:18:22.490Z,48.50
2019-04-03T05:20:52.164Z,47.90
2019-04-03T05:23:21.862Z,48.90
2019-04-03T05:25:51.674Z,48.50
2019-04-03T05:28:24.764Z,48.60
2019-04-03T05:30:53.622Z,48.80
2019-04-03T05:33:23.123Z,48.70
2019-04-03T05:35:53.930Z,48.30
2019-04-03T05:38:23.490Z,48.60
2019-04-03T05:40:53.050Z,48.70
2019-04-03T05:43:22.531Z,48.40
2019-04-03T05:45:52.296Z,48.60
2019-04-03T05:48:21.791Z,48.20
2019-04-03T05:50:51.501Z,47.70
2019-04-03T05:53:20.990Z,47.40
2019-04-03T05:55:50.698Z,46.70
2019-04-03T05:58:20.221Z,46.60
2019-04-03T06:01:02.601Z,45.80
2019-04-03T06:03:21.894Z,45.30
2019-04-03T06:05:52.520Z,45.20
2019-04-03T06:08:22.610Z,43.70
2019-04-03T06:10:52.168Z,42.40
2019-04-03T06:13:21.662Z,41.30
2019-04-03T06:15:53.239Z,40.50
2019-04-03T06:18:22.507Z,40.70
2019-04-03T06:20:52.913Z,40.50
2019-04-03T06:23:22.381Z,39.10
2019-04-03T06:25:52.070Z,38.10
2019-04-03T06:28:21.573Z,38.50
2019-04-03T06:30:51.106Z,37.50
2019-04-03T06:33:20.678Z,37.00
2019-04-03T06:35:50.222Z,36.90
2019-04-03T06:38:19.727Z,37.10
2019-04-03T06:40:49.266Z,37.60
2019-04-03T06:43:18.802Z,36.40
2019-04-03T06:45:48.391Z,36.00
2019-04-03T06:48:18.914Z,35.10
2019-04-03T06:50:48.456Z,34.30
2019-04-03T06:53:20.023Z,34.10
2019-04-03T06:55:49.521Z,34.60
2019-04-03T06:58:19.061Z,34.20
2019-04-03T07:00:48.848Z,34.10
2019-04-03T07:03:18.515Z,33.90
2019-04-03T07:05:48.013Z,34.30
2019-04-03T07:08:28.282Z,35.00
2019-04-03T07:10:54.905Z,35.00
2019-04-03T07:13:20.952Z,34.70
2019-04-03T07:15:50.639Z,34.70
2019-04-03T07:18:20.469Z,34.30
2019-04-03T07:20:51.777Z,34.40
2019-04-03T07:23:21.202Z,33.60
2019-04-03T07:25:50.698Z,33.00
2019-04-03T07:28:20.243Z,32.70
2019-04-03T07:30:52.795Z,32.30
2019-04-03T07:33:20.906Z,31.20
2019-04-03T07:35:50.410Z,30.10
2019-04-03T07:38:22.214Z,29.40
2019-04-03T07:40:52.286Z,28.10
2019-04-03T07:43:21.982Z,27.10
2019-04-03T07:45:51.483Z,27.00
2019-04-03T07:48:21.036Z,26.70
2019-04-03T07:50:50.821Z,26.40
2019-04-03T07:53:20.512Z,26.40
2019-04-03T07:55:50.579Z,25.80
2019-04-03T07:58:20.138Z,25.70
2019-04-03T08:00:50.886Z,24.90
2019-04-03T08:03:22.059Z,24.30
2019-04-03T08:05:55.140Z,24.50
2019-04-03T08:08:23.407Z,25.10
2019-04-03T08:10:52.994Z,25.60
2019-04-03T08:13:22.575Z,25.90
2019-04-03T08:15:52.462Z,26.10
2019-04-03T08:18:22.344Z,24.70
2019-04-03T08:20:52.251Z,24.30
2019-04-03T08:23:22.044Z,23.50
2019-04-03T08:25:54.022Z,23.20
2019-04-03T08:28:25.937Z,22.50
2019-04-03T08:30:54.518Z,22.00
2019-04-03T08:33:26.304Z,21.90
2019-04-03T08:35:56.271Z,22.60
2019-04-03T08:38:27.983Z,22.50
2019-04-03T08:40:57.539Z,22.60
2019-04-03T08:43:27.092Z,22.60
2019-04-03T08:45:56.606Z,22.50
2019-04-03T08:48:26.149Z,21.90
2019-04-03T08:50:57.245Z,22.10
2019-04-03T08:53:26.809Z,22.10
2019-04-03T08:55:56.628Z,22.40
2019-04-03T08:58:26.780Z,22.60
2019-04-03T09:00:56.771Z,22.20
2019-04-03T09:03:26.310Z,22.40
2019-04-03T09:05:55.942Z,22.30
2019-04-03T09:08:26.783Z,22.00
2019-04-03T09:10:56.601Z,21.60
2019-04-03T09:13:26.167Z,21.40
2019-04-03T09:15:58.713Z,21.30
2019-04-03T09:18:29.764Z,21.60
2019-04-03T09:20:57.978Z,20.70
2019-04-03T09:23:27.482Z,22.20
2019-04-03T09:25:57.294Z,22.80
2019-04-03T09:28:27.405Z,23.10
2019-04-03T09:30:57.249Z,23.60
2019-04-03T09:33:29.187Z,24.80
2019-04-03T09:35:59.371Z,25.60
2019-04-03T09:38:29.110Z,25.90
2019-04-03T09:40:58.704Z,27.10
2019-04-03T09:43:29.442Z,27.70
2019-04-03T09:46:00.335Z,27.80
2019-04-03T09:48:30.171Z,27.80
2019-04-03T09:50:59.711Z,28.10
2019-04-03T09:53:29.518Z,27.50
2019-04-03T09:56:00.326Z,28.60
2019-04-03T09:58:31.094Z,29.30
2019-04-03T10:01:00.746Z,27.60
2019-04-03T10:03:31.525Z,26.80
2019-04-03T10:06:01.172Z,25.60
2019-04-03T10:08:30.735Z,25.60
2019-04-03T10:11:00.318Z,24.50
2019-04-03T10:13:29.774Z,24.10
2019-04-03T10:15:59.339Z,23.70
2019-04-03T10:18:29.789Z,23.90
2019-04-03T10:20:59.335Z,24.20
2019-04-03T10:23:29.247Z,25.60
2019-04-03T10:25:59.054Z,27.80
2019-04-03T10:28:28.677Z,29.20
2019-04-03T10:30:58.240Z,30.00
2019-04-03T10:33:29.199Z,30.50
2019-04-03T10:35:59.028Z,30.00
2019-04-03T10:38:28.527Z,31.10
2019-04-03T10:40:58.050Z,31.70
2019-04-03T10:43:27.546Z,32.00
2019-04-03T10:45:57.386Z,31.60
2019-04-03T10:48:27.885Z,31.60
2019-04-03T10:50:58.512Z,31.30
2019-04-03T10:53:28.040Z,31.70
2019-04-03T10:55:58.118Z,32.30
2019-04-03T10:58:29.675Z,32.10
2019-04-03T11:01:00.323Z,32.50
2019-04-03T11:03:29.777Z,32.00
2019-04-03T11:05:59.309Z,32.70
2019-04-03T11:08:29.177Z,32.70
2019-04-03T11:10:58.921Z,32.70
2019-04-03T11:13:28.415Z,32.00
2019-04-03T11:15:59.027Z,32.10
2019-04-03T11:18:28.510Z,32.20
2019-04-03T11:20:58.045Z,32.30
2019-04-03T11:23:37.829Z,32.30
2019-04-03T11:25:58.718Z,31.90
2019-04-03T11:28:28.427Z,32.00
2019-04-03T11:31:00.726Z,32.90
2019-04-03T11:33:29.141Z,32.50
2019-04-03T11:35:58.729Z,32.40
2019-04-03T11:38:29.349Z,32.90
2019-04-03T11:41:11.366Z,32.70
2019-04-03T11:43:31.567Z,32.70
2019-04-03T11:46:01.630Z,32.60
2019-04-03T11:48:31.253Z,32.90
2019-04-03T11:51:00.775Z,32.90
2019-04-03T11:53:30.710Z,32.10
2019-04-03T11:56:00.237Z,32.40
2019-04-03T11:58:29.938Z,32.00
2019-04-03T12:00:59.653Z,32.10
2019-04-03T12:03:29.468Z,32.20
2019-04-03T12:05:59.272Z,32.70
2019-04-03T12:08:29.093Z,32.70
2019-04-03T12:10:58.906Z,32.70
2019-04-03T12:13:28.528Z,33.00
2019-04-03T12:15:58.837Z,32.40
2019-04-03T12:18:28.429Z,32.90
2019-04-03T12:20:58.064Z,32.70
2019-04-03T12:23:27.799Z,32.70
2019-04-03T12:25:57.312Z,32.20
2019-04-03T12:28:26.832Z,31.90
2019-04-03T12:30:56.329Z,32.60
2019-04-03T12:33:25.869Z,32.50
2019-04-03T12:35:55.356Z,33.10
2019-04-03T12:38:25.010Z,33.10
2019-04-03T12:40:54.615Z,33.00
2019-04-03T12:43:24.411Z,33.10
2019-04-03T12:45:53.925Z,33.10
2019-04-03T12:48:23.458Z,33.10
2019-04-03T12:50:53.319Z,33.40
2019-04-03T12:53:22.922Z,33.60
2019-04-03T12:55:52.539Z,33.00
2019-04-03T12:58:23.686Z,33.00
2019-04-03T13:00:53.403Z,33.00
2019-04-03T13:03:24.215Z,33.20
2019-04-03T13:05:54.087Z,33.20
2019-04-03T13:08:23.967Z,32.80
2019-04-03T13:10:53.538Z,33.00
2019-04-03T13:13:23.077Z,33.30
2019-04-03T13:15:52.637Z,33.30
2019-04-03T13:18:22.207Z,33.10
2019-04-03T13:20:52.045Z,33.20
2019-04-03T13:23:22.533Z,33.60
2019-04-03T13:25:53.130Z,33.20
2019-04-03T13:28:23.186Z,33.90
2019-04-03T13:30:53.178Z,33.70
2019-04-03T13:33:22.774Z,34.00
2019-04-03T13:35:52.265Z,33.20
2019-04-03T13:38:21.990Z,33.50
2019-04-03T13:40:51.958Z,33.40
2019-04-03T13:43:22.335Z,33.50
2019-04-03T13:45:52.269Z,33.60
2019-04-03T13:48:22.072Z,34.00
2019-04-03T13:50:54.829Z,33.60
2019-04-03T13:53:25.461Z,33.50
2019-04-03T13:55:54.823Z,33.10
2019-04-03T13:58:27.034Z,32.90
2019-04-03T14:01:00.920Z,32.90
2019-04-03T14:03:27.942Z,33.50
2019-04-03T14:05:58.074Z,33.20
2019-04-03T14:08:27.716Z,33.30
2019-04-03T14:10:58.717Z,33.00
2019-04-03T14:13:28.775Z,33.20
2019-04-03T14:15:58.376Z,33.30
2019-04-03T14:18:27.906Z,33.50
2019-04-03T14:20:57.903Z,33.30
2019-04-03T14:23:27.510Z,33.00
2019-04-03T14:26:04.059Z,33.20
2019-04-03T14:28:28.141Z,32.90
2019-04-03T14:30:57.626Z,33.00
2019-04-03T14:33:27.161Z,32.70
2019-04-03T14:35:56.752Z,32.50
2019-04-03T14:38:29.074Z,32.90
2019-04-03T14:40:59.403Z,32.70
2019-04-03T14:43:28.958Z,33.20
2019-04-03T14:45:58.493Z,32.70
2019-04-03T14:48:28.163Z,32.20
2019-04-03T14:50:57.811Z,32.50
2019-04-03T14:53:27.302Z,32.60
2019-04-03T14:55:58.177Z,32.10
2019-04-03T14:58:29.260Z,32.20
2019-04-03T15:00:58.837Z,32.70
2019-04-03T15:03:28.863Z,32.20
2019-04-03T15:27:07.698Z,37.70
2019-04-03T15:29:38.812Z,38.80
2019-04-03T15:32:08.472Z,40.80
2019-04-03T15:34:38.058Z,41.90
2019-04-03T15:37:08.880Z,38.50
2019-04-03T15:39:38.958Z,40.20
2019-04-03T15:46:03.428Z,41.90
2019-04-03T15:58:10.381Z,28.50
2019-04-03T16:00:42.846Z,30.50
2019-04-03T16:03:14.972Z,31.50
2019-04-03T16:05:45.565Z,32.40
2019-04-03T16:08:16.232Z,32.50
2019-04-03T16:10:46.928Z,32.80
2019-04-03T16:13:17.583Z,32.90
2019-04-03T16:15:48.104Z,33.10
2019-04-03T16:18:21.084Z,33.20
2019-04-03T16:20:51.703Z,33.20
2019-04-03T16:23:22.097Z,34.10
2019-04-03T16:25:52.533Z,33.80
2019-04-03T16:28:23.287Z,33.70
2019-04-03T16:30:54.444Z,33.90
2019-04-03T16:33:25.257Z,34.20
2019-04-03T16:35:56.485Z,34.40
2019-04-03T16:38:28.586Z,34.20
2019-04-03T16:40:59.032Z,34.50
2019-04-03T16:43:29.597Z,34.50
2019-04-03T16:46:00.990Z,34.40
2019-04-03T16:48:31.500Z,34.40
2019-04-03T16:51:01.951Z,34.40
2019-04-03T16:53:33.323Z,34.80
2019-04-03T16:56:05.535Z,34.80
2019-04-03T16:58:35.926Z,34.60
2019-04-03T17:01:06.522Z,34.80
2019-04-03T17:03:37.001Z,34.60
2019-04-03T17:06:07.941Z,34.90
2019-04-03T17:08:38.436Z,34.90
2019-04-03T17:11:11.297Z,35.00
2019-04-03T17:13:41.041Z,34.80
2019-04-03T17:16:13.942Z,35.00
2019-04-03T17:18:43.577Z,35.10
2019-04-03T17:21:14.190Z,35.30
2019-04-03T17:23:45.682Z,35.80
2019-04-03T17:26:17.262Z,35.60
2019-04-03T17:28:47.747Z,35.40
2019-04-03T17:31:20.033Z,35.50
2019-04-03T17:33:51.184Z,35.30
2019-04-03T17:36:22.085Z,35.60
2019-04-03T17:38:52.836Z,35.70
2019-04-03T17:41:23.849Z,35.70
2019-04-03T17:43:55.222Z,35.90
2019-04-03T17:46:25.654Z,35.80
2019-04-03T17:48:56.045Z,35.90
2019-04-03T17:51:26.483Z,35.90
2019-04-03T17:53:56.890Z,36.10
2019-04-03T17:56:27.324Z,36.10
2019-04-03T17:58:57.760Z,36.10
2019-04-03T18:01:28.203Z,36.10
2019-04-03T18:03:58.642Z,36.00
2019-04-03T18:06:29.037Z,36.20
2019-04-03T18:08:59.481Z,36.20
2019-04-03T18:11:29.880Z,36.40
2019-04-03T18:14:00.326Z,36.20
2019-04-03T18:16:30.722Z,36.30
2019-04-03T18:19:04.550Z,36.20
2019-04-03T18:21:33.497Z,36.50
2019-04-03T18:24:04.046Z,36.40
2019-04-03T18:26:35.486Z,36.50
2019-04-03T18:29:07.290Z,36.60
2019-04-03T18:31:35.119Z,36.90
2019-04-03T18:34:01.721Z,36.70
2019-04-03T18:36:31.117Z,36.80
2019-04-03T18:38:56.718Z,36.80
2019-04-03T18:41:23.214Z,36.80
2019-04-03T18:43:49.791Z,36.80
2019-04-03T18:46:31.129Z,36.90
2019-04-03T18:48:53.568Z,36.90
2019-04-03T18:51:20.276Z,36.60
2019-04-03T18:53:47.559Z,36.60
2019-04-03T18:56:15.522Z,36.60
2019-04-03T18:58:44.178Z,36.50
2019-04-03T19:01:10.777Z,36.30
2019-04-03T19:03:37.535Z,36.70
2019-04-03T19:06:04.172Z,36.60
2019-04-03T19:08:31.889Z,36.40
2019-04-03T19:11:02.633Z,36.30
2019-04-03T19:13:26.865Z,36.00
2019-04-03T19:15:53.510Z,36.00
2019-04-03T19:18:20.482Z,36.10
2019-04-03T19:20:47.267Z,36.00
2019-04-03T19:23:13.813Z,35.90
2019-04-03T19:25:40.458Z,35.90
2019-04-03T19:28:07.113Z,36.20
2019-04-03T19:30:33.655Z,35.70
2019-04-03T19:33:00.242Z,35.70
2019-04-03T19:35:28.395Z,35.50
2019-04-03T19:37:56.434Z,35.60
2019-04-03T19:40:22.998Z,35.30
2019-04-03T19:42:50.284Z,35.30
2019-04-03T19:45:17.115Z,35.00
2019-04-03T19:47:44.041Z,35.30
2019-04-03T19:50:11.150Z,35.20
2019-04-03T19:52:41.488Z,35.10
2019-04-03T19:55:07.458Z,35.10
2019-04-03T19:57:34.047Z,35.30
2019-04-03T20:00:01.071Z,35.20
2019-04-03T20:02:29.391Z,35.10
2019-04-03T20:04:56.949Z,35.10
2019-04-03T20:07:24.844Z,35.20
2019-04-03T20:09:52.046Z,35.40
2019-04-03T20:12:18.608Z,35.30
2019-04-03T20:14:57.598Z,35.40
2019-04-03T20:17:13.684Z,35.20
2019-04-03T20:19:40.427Z,35.20
2019-04-03T20:22:07.625Z,34.90
2019-04-03T20:24:34.328Z,35.10
2019-04-03T20:27:00.829Z,35.10
2019-04-03T20:29:29.160Z,35.10
2019-04-03T20:31:55.876Z,35.10
2019-04-03T20:34:22.444Z,35.20
2019-04-03T20:36:51.764Z,35.30
2019-04-03T20:39:17.550Z,35.30
2019-04-03T20:41:44.193Z,35.20
2019-04-03T20:44:10.746Z,35.40
2019-04-03T20:46:37.284Z,35.30
2019-04-03T20:49:03.829Z,35.40
2019-04-03T20:51:30.353Z,35.50
2019-04-03T20:53:56.885Z,35.50
2019-04-03T20:56:23.481Z,35.60
2019-04-03T20:58:56.213Z,35.80
2019-04-03T21:01:19.805Z,35.50
2019-04-03T21:03:46.712Z,35.50
2019-04-03T21:06:13.294Z,35.50
2019-04-03T21:08:39.802Z,35.50
2019-04-03T21:11:06.388Z,35.60
2019-04-03T21:13:32.977Z,35.50
2019-04-03T21:15:59.562Z,35.40
2019-04-03T21:18:26.050Z,35.50
2019-04-03T21:20:54.817Z,35.60
2019-04-03T21:23:21.859Z,35.80
2019-04-03T21:25:48.407Z,35.50
2019-04-03T21:28:14.967Z,35.80
2019-04-03T21:30:41.619Z,35.80
2019-04-03T21:33:08.242Z,35.80
2019-04-03T21:35:35.270Z,35.80
2019-04-03T21:38:02.502Z,35.70
2019-04-03T21:40:29.083Z,35.70
2019-04-03T21:42:57.599Z,35.80
2019-04-03T21:45:24.082Z,36.00
2019-04-03T21:47:50.695Z,36.20
2019-04-03T21:50:19.182Z,36.20
2019-04-03T21:52:45.659Z,36.10
2019-04-03T21:55:12.240Z,36.40
2019-04-03T21:57:38.828Z,36.40
2019-04-03T22:00:13.254Z,36.30
2019-04-03T22:02:40.347Z,36.30
2019-04-03T22:05:08.990Z,36.30
2019-04-03T22:07:35.534Z,36.40
2019-04-03T22:10:04.182Z,36.30
2019-04-03T22:12:31.615Z,36.30
2019-04-03T22:14:58.499Z,36.50
2019-04-03T22:17:25.445Z,36.60
2019-04-03T22:19:52.594Z,36.40
2019-04-03T22:22:19.717Z,36.40
2019-04-03T22:24:46.837Z,36.80
2019-04-03T22:27:13.851Z,36.60
2019-04-03T22:29:40.898Z,36.80
2019-04-03T22:32:07.965Z,36.70
2019-04-03T22:34:34.875Z,36.80
2019-04-03T22:37:03.867Z,37.00
2019-04-03T22:39:30.760Z,37.20
2019-04-03T22:41:57.939Z,37.10
2019-04-03T22:44:24.841Z,37.20
2019-04-03T22:46:52.041Z,37.10
2019-04-03T22:49:20.801Z,37.30
2019-04-03T22:51:47.741Z,37.20
2019-04-03T22:54:14.762Z,37.30
2019-04-03T22:56:41.795Z,37.70
2019-04-03T22:59:09.822Z,37.50
2019-04-03T23:01:36.754Z,37.40
2019-04-03T23:04:05.349Z,37.70
2019-04-03T23:06:32.708Z,37.60
2019-04-03T23:08:59.763Z,37.70
2019-04-03T23:11:26.799Z,37.80
2019-04-03T23:13:53.845Z,37.90
2019-04-03T23:16:20.994Z,37.80
2019-04-03T23:18:48.135Z,38.10
2019-04-03T23:21:15.192Z,38.10
2019-04-03T23:23:42.415Z,38.20
2019-04-03T23:26:09.644Z,38.30
2019-04-03T23:28:36.889Z,38.60
2019-04-03T23:31:04.073Z,38.60
2019-04-03T23:33:31.169Z,38.50
2019-04-03T23:35:58.268Z,38.60
2019-04-03T23:38:26.720Z,38.70
2019-04-03T23:40:54.304Z,38.90
2019-04-03T23:43:21.566Z,38.60
2019-04-03T23:45:48.667Z,38.60
2019-04-03T23:48:17.820Z,38.80
2019-04-03T23:50:44.762Z,38.80
2019-04-03T23:53:11.946Z,39.00
2019-04-03T23:55:39.059Z,38.90
2019-04-03T23:58:06.129Z,38.80
